Time;durP1;ratioP1;P1;durP2;ratioP2;P2;SDS_P1;SDS_P2;PMS_P1;PMS_P2;Temp;Humidity;BMP_temperature;BMP_pressure;BME280_temperature;BME280_humidity;BME280_pressure;Samples;Min_cycle;Max_cycle;Signal;HPM_P1;HPM_P2
2022/09/17 00:00:39;;;;;;;75.50;69.00;;;;;;;;;;10193653;28;20052;-70
2022/09/17 00:05:38;;;;;;;73.18;67.05;;;;;;;;;;10193466;28;20042;-70
2022/09/17 00:10:39;;;;;;;70.85;64.15;;;;;;;;;;10169728;28;20452;-70
2022/09/17 00:15:39;;;;;;;62.03;56.63;;;;;;;;;;10174239;28;20057;-69
2022/09/17 00:20:37;;;;;;;61.58;55.78;;;;;;;;;;10192747;28;20042;-70
2022/09/17 00:25:33;;;;;;;63.80;58.30;;;;;;;;;;10193272;28;20526;-69
2022/09/17 00:30:29;;;;;;;66.03;59.33;;;;;;;;;;10194093;28;20041;-70
2022/09/17 00:35:26;;;;;;;60.45;54.97;;;;;;;;;;10200530;28;20046;-70
2022/09/17 00:40:23;;;;;;;65.25;58.05;;;;;;;;;;10201618;28;20046;-69
2022/09/17 00:45:19;;;;;;;68.55;62.53;;;;;;;;;;10200860;28;20042;-70
2022/09/17 00:50:18;;;;;;;70.32;62.95;;;;;;;;;;10201532;28;20128;-70
2022/09/17 00:55:17;;;;;;;61.65;55.85;;;;;;;;;;10199952;28;20042;-70
2022/09/17 01:00:14;;;;;;;64.60;58.28;;;;;;;;;;10199758;28;20046;-70
2022/09/17 01:05:11;;;;;;;61.58;56.20;;;;;;;;;;10199456;28;20060;-70
2022/09/17 01:10:18;;;;;;;69.20;63.53;;;;;;;;;;10198705;28;20640;-70
2022/09/17 01:15:26;;;;;;;65.65;60.42;;;;;;;;;;10199430;28;20046;-70
2022/09/17 01:20:37;;;;;;;68.13;61.42;;;;;;;;;;10198866;28;20041;-70
2022/09/17 01:25:54;;;;;;;64.72;59.88;;;;;;;;;;10199018;28;20113;-70
2022/09/17 01:30:50;;;;;;;65.20;60.10;;;;;;;;;;10157708;28;20428;-70
2022/09/17 01:36:19;;;;;;;65.75;60.75;;;;;;;;;;10180314;28;20042;-70
2022/09/17 01:41:15;;;;;;;70.30;64.22;;;;;;;;;;10197000;28;20045;-70
2022/09/17 01:46:14;;;;;;;65.05;59.45;;;;;;;;;;10196923;28;20057;-70
2022/09/17 01:51:13;;;;;;;70.50;64.78;;;;;;;;;;10198013;28;20077;-70
2022/09/17 01:56:13;;;;;;;75.25;69.63;;;;;;;;;;10194228;28;20061;-70
2022/09/17 02:01:11;;;;;;;78.20;71.70;;;;;;;;;;10164128;28;20507;-70
2022/09/17 02:06:14;;;;;;;76.20;70.07;;;;;;;;;;10180225;28;20050;-70
2022/09/17 02:11:16;;;;;;;72.13;66.40;;;;;;;;;;10157011;28;20050;-70
2022/09/17 02:16:16;;;;;;;72.45;66.75;;;;;;;;;;10168815;28;20089;-70
2022/09/17 02:21:29;;;;;;;72.28;66.57;;;;;;;;;;10157118;28;20046;-70
2022/09/17 02:26:26;;;;;;;72.70;66.60;;;;;;;;;;10184965;28;20447;-70
2022/09/17 02:31:22;;;;;;;73.90;68.38;;;;;;;;;;10196733;28;20060;-70
2022/09/17 02:36:19;;;;;;;68.57;63.33;;;;;;;;;;10191915;28;20050;-70
2022/09/17 02:41:20;;;;;;;68.47;63.38;;;;;;;;;;10189392;28;20058;-70
2022/09/17 02:46:19;;;;;;;71.43;65.95;;;;;;;;;;10182863;28;20045;-69
2022/09/17 02:51:19;;;;;;;69.45;64.38;;;;;;;;;;10176533;28;20056;-71
2022/09/17 02:56:18;;;;;;;69.25;63.75;;;;;;;;;;10182116;28;20052;-70
2022/09/17 03:01:20;;;;;;;71.80;66.05;;;;;;;;;;10160553;28;20060;-70
2022/09/17 03:06:17;;;;;;;73.40;67.50;;;;;;;;;;10172109;28;20049;-70
2022/09/17 03:11:13;;;;;;;68.47;62.72;;;;;;;;;;10155965;28;20046;-70
2022/09/17 03:16:10;;;;;;;68.32;63.17;;;;;;;;;;10168503;28;20046;-70
2022/09/17 03:21:06;;;;;;;70.35;64.22;;;;;;;;;;10155096;28;20046;-70
2022/09/17 03:26:02;;;;;;;69.60;64.40;;;;;;;;;;10179725;28;20061;-70
2022/09/17 03:30:58;;;;;;;70.10;64.30;;;;;;;;;;10194810;28;20038;-70
2022/09/17 03:35:55;;;;;;;68.00;62.63;;;;;;;;;;10187182;28;20393;-70
2022/09/17 03:41:01;;;;;;;67.65;62.58;;;;;;;;;;10194625;28;20149;-70
2022/09/17 03:45:58;;;;;;;69.57;63.45;;;;;;;;;;10183088;28;20050;-70
2022/09/17 03:50:54;;;;;;;69.85;64.70;;;;;;;;;;10181741;28;20065;-70
2022/09/17 03:55:50;;;;;;;68.05;62.83;;;;;;;;;;10176800;28;20042;-70
2022/09/17 04:00:51;;;;;;;68.35;62.63;;;;;;;;;;10165446;28;20042;-70
2022/09/17 04:05:48;;;;;;;69.32;63.88;;;;;;;;;;10175319;28;20041;-71
2022/09/17 04:10:45;;;;;;;60.78;56.05;;;;;;;;;;10170524;28;20411;-70
2022/09/17 04:15:41;;;;;;;60.70;55.95;;;;;;;;;;10174543;28;20060;-70
2022/09/17 04:20:37;;;;;;;57.67;53.13;;;;;;;;;;10192784;28;20045;-70
2022/09/17 04:25:34;;;;;;;62.25;57.78;;;;;;;;;;10192823;28;20427;-70
2022/09/17 04:30:30;;;;;;;66.55;61.58;;;;;;;;;;10162096;28;20050;-70
2022/09/17 04:35:27;;;;;;;65.30;59.58;;;;;;;;;;10163947;28;20155;-70
2022/09/17 04:40:23;;;;;;;58.55;53.88;;;;;;;;;;10153015;28;20050;-70
2022/09/17 04:45:20;;;;;;;53.88;48.42;;;;;;;;;;10170948;28;20049;-70
2022/09/17 04:50:17;;;;;;;51.70;47.30;;;;;;;;;;10192527;28;20393;-70
2022/09/17 04:55:14;;;;;;;53.53;48.67;;;;;;;;;;10192126;28;20057;-70
2022/09/17 05:00:10;;;;;;;65.32;59.80;;;;;;;;;;10192418;28;20050;-70
2022/09/17 05:05:06;;;;;;;56.67;51.72;;;;;;;;;;10192330;28;20492;-70
2022/09/17 05:10:03;;;;;;;62.90;57.85;;;;;;;;;;10192435;28;20444;-70
2022/09/17 05:15:00;;;;;;;65.30;59.80;;;;;;;;;;10177470;28;20046;-71
2022/09/17 05:19:56;;;;;;;65.93;60.80;;;;;;;;;;10196942;28;20060;-69
2022/09/17 05:24:52;;;;;;;68.05;62.50;;;;;;;;;;10177345;28;20046;-70
2022/09/17 05:29:48;;;;;;;72.20;66.53;;;;;;;;;;10197407;28;20053;-70
2022/09/17 05:34:45;;;;;;;66.40;61.47;;;;;;;;;;10173000;28;20053;-70
2022/09/17 05:39:41;;;;;;;71.32;64.95;;;;;;;;;;10185897;28;20049;-70
2022/09/17 05:44:37;;;;;;;69.65;64.13;;;;;;;;;;10171919;28;20056;-70
2022/09/17 05:49:33;;;;;;;71.32;65.43;;;;;;;;;;10197835;28;20045;-70
2022/09/17 05:54:30;;;;;;;70.38;64.28;;;;;;;;;;10196882;28;20052;-70
2022/09/17 05:59:26;;;;;;;69.70;64.15;;;;;;;;;;10198118;28;20042;-70
2022/09/17 06:04:23;;;;;;;67.38;61.88;;;;;;;;;;10197760;28;20529;-69
2022/09/17 06:09:19;;;;;;;69.05;62.85;;;;;;;;;;10197412;28;20059;-70
2022/09/17 06:14:16;;;;;;;74.10;67.60;;;;;;;;;;10197088;28;20053;-69
2022/09/17 06:19:12;;;;;;;64.80;59.20;;;;;;;;;;10197640;28;20499;-70
2022/09/17 06:24:09;;;;;;;69.65;63.38;;;;;;;;;;10197400;28;20064;-70
2022/09/17 06:29:05;;;;;;;70.90;65.38;;;;;;;;;;10192992;28;20051;-69
2022/09/17 06:34:01;;;;;;;73.13;67.57;;;;;;;;;;10165369;28;20038;-70
2022/09/17 06:38:58;;;;;;;76.22;69.93;;;;;;;;;;10196223;28;20434;-69
2022/09/17 06:43:54;;;;;;;74.82;68.68;;;;;;;;;;10196755;28;20049;-69
2022/09/17 06:48:50;;;;;;;71.28;65.93;;;;;;;;;;10171805;28;20534;-69
2022/09/17 06:53:47;;;;;;;65.65;61.15;;;;;;;;;;10161851;28;20057;-70
2022/09/17 06:58:44;;;;;;;72.85;67.43;;;;;;;;;;10196229;28;20049;-70
2022/09/17 07:03:41;;;;;;;70.70;65.05;;;;;;;;;;10195583;28;20434;-70
2022/09/17 07:08:38;;;;;;;69.88;64.93;;;;;;;;;;10195435;28;20054;-69
2022/09/17 07:13:34;;;;;;;70.32;65.50;;;;;;;;;;10195014;28;20096;-70
2022/09/17 07:18:31;;;;;;;69.63;65.03;;;;;;;;;;10194947;28;20038;-69
2022/09/17 07:23:28;;;;;;;53.33;49.58;;;;;;;;;;10168945;28;20052;-70
2022/09/17 07:28:25;;;;;;;26.95;24.08;;;;;;;;;;10194083;28;20046;-69
2022/09/17 07:33:23;;;;;;;20.88;19.25;;;;;;;;;;10194640;28;20045;-70
2022/09/17 07:38:19;;;;;;;23.40;21.50;;;;;;;;;;10188623;28;20054;-70
2022/09/17 07:43:15;;;;;;;21.83;19.90;;;;;;;;;;10155494;28;20048;-70
2022/09/17 07:48:12;;;;;;;24.27;22.30;;;;;;;;;;10180357;28;20061;-70
2022/09/17 07:53:08;;;;;;;23.88;21.88;;;;;;;;;;10154994;28;20046;-70
2022/09/17 07:58:05;;;;;;;23.77;21.77;;;;;;;;;;10192961;28;20050;-70
2022/09/17 08:03:01;;;;;;;18.45;16.92;;;;;;;;;;10194269;28;20046;-70
2022/09/17 08:07:58;;;;;;;16.73;15.23;;;;;;;;;;10154060;28;20104;-70
2022/09/17 08:12:56;;;;;;;47.47;44.58;;;;;;;;;;10153843;28;20052;-70
2022/09/17 08:17:52;;;;;;;15.32;13.93;;;;;;;;;;10168282;28;20060;-70
2022/09/17 08:22:48;;;;;;;17.85;15.82;;;;;;;;;;10157629;28;20038;-70
2022/09/17 08:27:45;;;;;;;15.52;14.02;;;;;;;;;;10192975;28;20602;-69
2022/09/17 08:32:41;;;;;;;15.70;12.27;;;;;;;;;;10192913;28;20046;-70
2022/09/17 08:37:38;;;;;;;13.20;11.10;;;;;;;;;;10192864;28;20064;-69
2022/09/17 08:42:55;;;;;;;14.55;11.48;;;;;;;;;;10192624;28;20053;-70
2022/09/17 08:48:00;;;;;;;18.45;11.50;;;;;;;;;;10192190;28;20104;-70
2022/09/17 08:53:03;;;;;;;15.68;10.65;;;;;;;;;;10196642;28;20049;-70
2022/09/17 08:58:18;;;;;;;12.02;10.68;;;;;;;;;;10186114;28;20361;-70
2022/09/17 09:03:15;;;;;;;19.02;9.93;;;;;;;;;;10200524;28;20042;-70
2022/09/17 09:08:17;;;;;;;14.63;10.38;;;;;;;;;;10165340;28;20049;-70
2022/09/17 09:13:14;;;;;;;;;;;;;;;;;;10163611;28;20073;-70
2022/09/17 09:18:20;;;;;;;9.65;8.65;;;;;;;;;;10199811;28;19921;-70
2022/09/17 09:23:18;;;;;;;8.88;6.30;;;;;;;;;;10188963;28;20504;-70
2022/09/17 09:28:40;;;;;;;6.85;6.15;;;;;;;;;;10198147;28;20046;-70
2022/09/17 09:33:39;;;;;;;11.35;8.27;;;;;;;;;;10198200;28;20054;-70
2022/09/17 09:39:01;;;;;;;9.13;7.15;;;;;;;;;;10199038;28;20061;-70
2022/09/17 09:44:08;;;;;;;9.95;7.53;;;;;;;;;;10198343;28;20038;-70
2022/09/17 09:49:15;;;;;;;25.67;7.70;;;;;;;;;;10198544;28;20534;-70
2022/09/17 09:54:19;;;;;;;8.00;7.32;;;;;;;;;;10197991;28;20052;-70
2022/09/17 09:59:17;;;;;;;8.52;7.72;;;;;;;;;;10185230;28;20051;-70
2022/09/17 10:04:21;;;;;;;7.10;6.50;;;;;;;;;;10167082;28;20061;-70
2022/09/17 10:09:20;;;;;;;8.27;7.63;;;;;;;;;;10197038;28;20053;-71
2022/09/17 10:14:22;;;;;;;8.38;7.63;;;;;;;;;;10197417;28;20038;-70
2022/09/17 10:19:23;;;;;;;9.70;8.80;;;;;;;;;;10197379;28;20052;-71
2022/09/17 10:24:27;;;;;;;8.55;7.75;;;;;;;;;;10190419;28;20058;-71
2022/09/17 10:29:23;;;;;;;9.35;8.50;;;;;;;;;;10195923;28;20056;-71
2022/09/17 10:34:21;;;;;;;10.02;8.90;;;;;;;;;;10196374;28;20500;-71
2022/09/17 10:39:17;;;;;;;9.73;8.68;;;;;;;;;;10196567;28;20046;-71
2022/09/17 10:44:16;;;;;;;9.80;8.85;;;;;;;;;;10170138;28;20049;-71
2022/09/17 10:49:39;;;;;;;11.93;8.73;;;;;;;;;;10196001;28;20060;-71
2022/09/17 10:54:54;;;;;;;8.97;8.17;;;;;;;;;;10195719;28;20121;-70
2022/09/17 10:59:59;;;;;;;9.13;8.25;;;;;;;;;;10195602;28;20562;-71
2022/09/17 11:05:05;;;;;;;9.10;8.40;;;;;;;;;;10196241;28;20053;-71
2022/09/17 11:10:07;;;;;;;9.23;8.52;;;;;;;;;;10194872;28;20717;-71
2022/09/17 11:15:18;;;;;;;11.02;10.23;;;;;;;;;;10194267;28;20052;-71
2022/09/17 11:20:32;;;;;;;9.95;8.95;;;;;;;;;;10195967;28;20057;-71
2022/09/17 11:25:42;;;;;;;9.63;8.38;;;;;;;;;;10186751;28;20435;-71
2022/09/17 11:30:57;;;;;;;9.70;8.80;;;;;;;;;;10194841;28;20423;-71
2022/09/17 11:36:01;;;;;;;8.85;7.97;;;;;;;;;;10194403;28;20173;-72
2022/09/17 11:41:06;;;;;;;9.43;7.57;;;;;;;;;;10194120;28;20129;-71
2022/09/17 11:46:07;;;;;;;9.38;8.48;;;;;;;;;;10194179;28;20526;-71
2022/09/17 11:51:07;;;;;;;9.60;8.80;;;;;;;;;;10194128;28;20167;-71
2022/09/17 11:56:04;;;;;;;8.25;7.55;;;;;;;;;;10194107;28;20424;-71
2022/09/17 12:01:02;;;;;;;13.20;8.73;;;;;;;;;;10194741;28;20453;-71
2022/09/17 12:06:06;;;;;;;12.10;10.98;;;;;;;;;;10193093;28;20046;-71
2022/09/17 12:11:06;;;;;;;10.82;9.82;;;;;;;;;;10194321;28;20433;-71
2022/09/17 12:16:18;;;;;;;11.52;10.43;;;;;;;;;;10192851;28;20068;-71
2022/09/17 12:21:17;;;;;;;10.20;9.20;;;;;;;;;;10189474;28;20061;-71
2022/09/17 12:26:28;;;;;;;10.68;9.57;;;;;;;;;;10178939;28;20050;-71
2022/09/17 12:31:50;;;;;;;11.90;9.48;;;;;;;;;;10192177;28;20049;-71
2022/09/17 12:37:07;;;;;;;10.90;9.80;;;;;;;;;;10191722;28;20046;-72
2022/09/17 12:42:32;;;;;;;10.90;8.60;;;;;;;;;;10161204;28;20046;-71
2022/09/17 12:47:31;;;;;;;10.93;8.27;;;;;;;;;;10195891;28;20050;-71
2022/09/17 12:52:30;;;;;;;10.57;8.23;;;;;;;;;;10193075;28;20048;-71
2022/09/17 12:57:46;;;;;;;10.98;8.48;;;;;;;;;;10192256;28;20447;-71
2022/09/17 13:02:46;;;;;;;9.18;7.82;;;;;;;;;;10193017;28;20069;-71
2022/09/17 13:07:47;;;;;;;11.68;8.55;;;;;;;;;;10191762;28;20052;-71
2022/09/17 13:12:46;;;;;;;9.90;8.75;;;;;;;;;;10192750;28;20050;-71
2022/09/17 13:17:45;;;;;;;9.82;8.50;;;;;;;;;;10190758;28;20054;-71
2022/09/17 13:22:56;;;;;;;11.02;9.52;;;;;;;;;;10191986;28;20049;-71
2022/09/17 13:28:07;;;;;;;11.13;9.98;;;;;;;;;;10192374;28;20060;-71
2022/09/17 13:33:03;;;;;;;10.55;9.65;;;;;;;;;;10166332;28;20704;-71
2022/09/17 13:38:00;;;;;;;11.38;10.27;;;;;;;;;;10192198;28;20068;-71
2022/09/17 13:43:02;;;;;;;11.38;10.00;;;;;;;;;;10159440;28;20428;-71
2022/09/17 13:48:04;;;;;;;12.25;11.10;;;;;;;;;;10162730;28;20038;-71
2022/09/17 13:53:13;;;;;;;21.53;11.87;;;;;;;;;;10199426;28;20049;-71
2022/09/17 13:58:11;;;;;;;11.02;10.02;;;;;;;;;;10166538;28;20054;-71
2022/09/17 14:03:25;;;;;;;13.90;12.55;;;;;;;;;;10198527;28;20428;-71
2022/09/17 14:08:27;;;;;;;15.30;14.07;;;;;;;;;;10197442;28;20050;-71
2022/09/17 14:13:26;;;;;;;18.17;16.27;;;;;;;;;;10198294;28;20053;-71
2022/09/17 14:18:28;;;;;;;17.95;16.35;;;;;;;;;;10161172;28;20053;-71
2022/09/17 14:23:24;;;;;;;27.85;26.15;;;;;;;;;;10169687;28;20069;-71
2022/09/17 14:28:34;;;;;;;42.58;40.20;;;;;;;;;;10197432;28;20046;-71
2022/09/17 14:33:31;;;;;;;51.90;48.97;;;;;;;;;;10183895;28;20045;-71
2022/09/17 14:38:27;;;;;;;49.88;47.28;;;;;;;;;;10196777;28;20049;-71
2022/09/17 14:43:32;;;;;;;39.17;36.90;;;;;;;;;;10171813;28;20054;-70
2022/09/17 14:48:35;;;;;;;17.60;16.50;;;;;;;;;;10196747;28;20042;-70
2022/09/17 14:53:32;;;;;;;28.15;26.45;;;;;;;;;;10196036;28;20042;-70
2022/09/17 14:58:33;;;;;;;52.22;49.13;;;;;;;;;;10196135;28;20452;-70
2022/09/17 15:03:29;;;;;;;59.63;55.75;;;;;;;;;;10195850;28;20729;-70
2022/09/17 15:08:29;;;;;;;50.33;47.08;;;;;;;;;;10195399;28;20054;-70
2022/09/17 15:13:27;;;;;;;117.38;109.97;;;;;;;;;;10195622;28;20045;-70
2022/09/17 15:18:29;;;;;;;102.28;95.93;;;;;;;;;;10194777;28;20056;-69
2022/09/17 15:23:27;;;;;;;100.10;93.75;;;;;;;;;;10195565;28;20041;-70
2022/09/17 15:28:28;;;;;;;109.00;102.40;;;;;;;;;;10194723;28;20052;-69
2022/09/17 15:33:26;;;;;;;112.78;105.40;;;;;;;;;;10194912;28;20054;-69
2022/09/17 15:38:26;;;;;;;108.53;101.50;;;;;;;;;;10194470;28;20050;-70
2022/09/17 15:43:26;;;;;;;71.10;66.90;;;;;;;;;;10194694;28;20046;-70
2022/09/17 15:48:43;;;;;;;81.53;76.72;;;;;;;;;;10194331;28;20049;-70
2022/09/17 15:53:49;;;;;;;69.53;65.13;;;;;;;;;;10187195;28;20499;-70
2022/09/17 15:58:45;;;;;;;70.90;66.72;;;;;;;;;;10194120;28;20046;-70
2022/09/17 16:03:45;;;;;;;81.45;76.60;;;;;;;;;;10192916;28;20113;-70
2022/09/17 16:08:41;;;;;;;78.30;73.90;;;;;;;;;;10193056;28;20054;-70
2022/09/17 16:13:37;;;;;;;81.20;76.65;;;;;;;;;;10193505;28;20420;-70
2022/09/17 16:18:33;;;;;;;70.40;66.50;;;;;;;;;;10175349;28;20347;-70
2022/09/17 16:23:30;;;;;;;77.85;73.22;;;;;;;;;;10156211;28;20046;-70
2022/09/17 16:28:26;;;;;;;85.45;80.53;;;;;;;;;;10192643;28;20053;-70
2022/09/17 16:33:25;;;;;;;90.18;85.15;;;;;;;;;;10193343;28;20053;-70
2022/09/17 16:38:21;;;;;;;77.82;73.32;;;;;;;;;;10160000;28;20070;-70
2022/09/17 16:43:17;;;;;;;73.90;69.68;;;;;;;;;;10154766;28;20042;-70
2022/09/17 16:48:13;;;;;;;76.60;71.95;;;;;;;;;;10192872;28;20053;-70
2022/09/17 16:53:09;;;;;;;58.78;55.28;;;;;;;;;;10192664;28;20072;-70
2022/09/17 16:58:06;;;;;;;58.40;54.88;;;;;;;;;;10192898;28;20052;-70
2022/09/17 17:03:03;;;;;;;60.08;56.50;;;;;;;;;;10192585;28;20054;-69
2022/09/17 17:08:00;;;;;;;58.55;54.75;;;;;;;;;;10152334;28;20126;-70
2022/09/17 17:13:01;;;;;;;62.80;58.70;;;;;;;;;;10155377;28;20053;-69
2022/09/17 17:17:58;;;;;;;58.97;55.33;;;;;;;;;;10199879;28;20052;-70
2022/09/17 17:22:54;;;;;;;61.25;57.40;;;;;;;;;;10184479;28;20042;-70
2022/09/17 17:27:50;;;;;;;77.00;72.05;;;;;;;;;;10198740;28;20064;-70
2022/09/17 17:32:50;;;;;;;71.00;66.95;;;;;;;;;;10199502;28;20049;-70
2022/09/17 17:37:47;;;;;;;72.68;68.70;;;;;;;;;;10192257;28;20042;-70
2022/09/17 17:42:46;;;;;;;63.13;59.63;;;;;;;;;;10159607;28;20477;-70
2022/09/17 17:47:42;;;;;;;67.13;63.03;;;;;;;;;;10196307;28;20048;-69
2022/09/17 17:52:42;;;;;;;64.07;60.47;;;;;;;;;;10199026;28;20045;-70
2022/09/17 17:57:38;;;;;;;65.63;61.97;;;;;;;;;;10169741;28;20047;-70
2022/09/17 18:02:35;;;;;;;69.10;64.75;;;;;;;;;;10165756;28;20046;-70
2022/09/17 18:07:31;;;;;;;71.30;66.70;;;;;;;;;;10198030;28;20046;-71
2022/09/17 18:12:27;;;;;;;70.50;66.10;;;;;;;;;;10197855;28;20515;-70
2022/09/17 18:17:24;;;;;;;68.38;64.32;;;;;;;;;;10197456;28;20073;-70
2022/09/17 18:22:20;;;;;;;72.22;68.22;;;;;;;;;;10197263;28;20054;-70
2022/09/17 18:27:16;;;;;;;76.90;72.35;;;;;;;;;;10196728;28;20515;-71
2022/09/17 18:32:12;;;;;;;68.47;64.53;;;;;;;;;;10169223;28;20058;-70
2022/09/17 18:37:09;;;;;;;69.60;65.60;;;;;;;;;;10189989;28;20439;-70
2022/09/17 18:42:05;;;;;;;69.25;65.22;;;;;;;;;;10197002;28;20064;-70
2022/09/17 18:47:01;;;;;;;68.70;64.35;;;;;;;;;;10196396;28;20046;-70
2022/09/17 18:51:57;;;;;;;70.47;66.10;;;;;;;;;;10196550;28;20056;-71
2022/09/17 18:56:54;;;;;;;79.32;74.28;;;;;;;;;;10176058;28;20061;-70
2022/09/17 19:01:50;;;;;;;68.13;64.03;;;;;;;;;;10156669;28;20046;-70
2022/09/17 19:06:46;;;;;;;64.10;60.38;;;;;;;;;;10186726;28;20056;-70
2022/09/17 19:11:42;;;;;;;73.78;69.30;;;;;;;;;;10184897;28;20053;-70
2022/09/17 19:16:39;;;;;;;75.15;70.93;;;;;;;;;;10184749;28;20049;-71
2022/09/17 19:21:35;;;;;;;80.35;75.60;;;;;;;;;;10195078;28;20076;-71
2022/09/17 19:26:31;;;;;;;81.03;75.78;;;;;;;;;;10195559;28;20056;-71
2022/09/17 19:31:27;;;;;;;77.10;71.97;;;;;;;;;;10194971;28;20054;-70
2022/09/17 19:36:24;;;;;;;81.50;76.22;;;;;;;;;;10193550;28;20054;-71
2022/09/17 19:41:22;;;;;;;77.30;72.03;;;;;;;;;;10174835;28;20050;-70
2022/09/17 19:46:19;;;;;;;70.35;65.15;;;;;;;;;;10180610;28;20089;-71
2022/09/17 19:51:16;;;;;;;74.53;69.55;;;;;;;;;;10156451;28;20138;-71
2022/09/17 19:56:13;;;;;;;78.03;72.72;;;;;;;;;;10179774;28;20046;-71
2022/09/17 20:01:10;;;;;;;74.90;69.50;;;;;;;;;;10194205;28;20061;-71
2022/09/17 20:06:09;;;;;;;80.28;74.57;;;;;;;;;;10175845;28;20046;-71
2022/09/17 20:11:06;;;;;;;81.38;75.65;;;;;;;;;;10154032;28;20052;-71
2022/09/17 20:16:05;;;;;;;78.50;72.07;;;;;;;;;;10177099;28;20046;-71
2022/09/17 20:21:05;;;;;;;83.82;78.00;;;;;;;;;;10192412;28;20059;-71
2022/09/17 20:26:02;;;;;;;79.68;74.05;;;;;;;;;;10193034;28;20037;-71
2022/09/17 20:31:07;;;;;;;64.60;59.65;;;;;;;;;;10193202;28;20046;-71
2022/09/17 20:36:05;;;;;;;68.68;64.30;;;;;;;;;;10178789;28;20129;-71
2022/09/17 20:41:05;;;;;;;78.05;72.78;;;;;;;;;;10192065;28;20411;-71
2022/09/17 20:46:02;;;;;;;83.20;77.55;;;;;;;;;;10193178;28;20504;-71
2022/09/17 20:51:03;;;;;;;78.97;73.95;;;;;;;;;;10199207;28;20038;-70
2022/09/17 20:56:00;;;;;;;72.38;67.05;;;;;;;;;;10200969;28;20053;-70
2022/09/17 21:01:04;;;;;;;82.78;77.40;;;;;;;;;;10200529;28;20507;-71
2022/09/17 21:06:00;;;;;;;75.40;70.63;;;;;;;;;;10200649;28;20068;-70
2022/09/17 21:10:56;;;;;;;83.15;77.55;;;;;;;;;;10177219;28;20054;-71
2022/09/17 21:15:53;;;;;;;79.18;73.45;;;;;;;;;;10183192;28;20057;-71
2022/09/17 21:20:50;;;;;;;67.28;62.95;;;;;;;;;;10200220;28;20037;-70
2022/09/17 21:25:46;;;;;;;61.53;57.30;;;;;;;;;;10200281;28;20045;-71
2022/09/17 21:30:45;;;;;;;50.60;47.05;;;;;;;;;;10165546;28;20523;-71
2022/09/17 21:35:41;;;;;;;55.88;51.95;;;;;;;;;;10174298;28;20046;-71
2022/09/17 21:40:38;;;;;;;49.20;45.85;;;;;;;;;;10159379;28;20044;-72
2022/09/17 21:45:34;;;;;;;48.60;45.08;;;;;;;;;;10179114;28;20049;-71
2022/09/17 21:50:31;;;;;;;47.78;44.47;;;;;;;;;;10199725;28;20046;-71
2022/09/17 21:55:27;;;;;;;48.50;44.97;;;;;;;;;;10198282;28;20042;-71
2022/09/17 22:00:25;;;;;;;49.67;45.83;;;;;;;;;;10197782;28;20048;-71
2022/09/17 22:05:21;;;;;;;54.47;50.67;;;;;;;;;;10198336;28;21405;-71
2022/09/17 22:10:17;;;;;;;54.22;50.58;;;;;;;;;;10197879;28;20064;-71
2022/09/17 22:15:14;;;;;;;51.10;47.53;;;;;;;;;;10197675;28;20451;-71
2022/09/17 22:20:10;;;;;;;47.63;44.53;;;;;;;;;;10197874;28;20065;-71
2022/09/17 22:25:06;;;;;;;50.03;46.42;;;;;;;;;;10197965;28;20444;-71
2022/09/17 22:30:03;;;;;;;49.60;46.47;;;;;;;;;;10195579;28;20046;-71
2022/09/17 22:34:59;;;;;;;45.35;42.00;;;;;;;;;;10173504;28;20431;-71
2022/09/17 22:39:55;;;;;;;45.83;42.58;;;;;;;;;;10196414;28;20048;-71
2022/09/17 22:44:52;;;;;;;43.40;40.47;;;;;;;;;;10196737;28;20064;-71
2022/09/17 22:49:48;;;;;;;39.15;36.40;;;;;;;;;;10175093;28;20447;-71
2022/09/17 22:54:44;;;;;;;39.83;36.00;;;;;;;;;;10170426;28;20042;-71
2022/09/17 22:59:40;;;;;;;37.20;34.42;;;;;;;;;;10160476;28;20512;-71
2022/09/17 23:04:37;;;;;;;36.80;34.35;;;;;;;;;;10168544;28;20412;-71
2022/09/17 23:09:33;;;;;;;40.17;37.45;;;;;;;;;;10195538;28;20061;-71
2022/09/17 23:14:30;;;;;;;38.88;36.00;;;;;;;;;;10195167;28;20054;-70
2022/09/17 23:19:27;;;;;;;38.50;35.92;;;;;;;;;;10195160;28;20046;-70
2022/09/17 23:24:24;;;;;;;32.05;29.58;;;;;;;;;;10195002;28;20042;-71
2022/09/17 23:29:20;;;;;;;25.92;24.08;;;;;;;;;;10194883;28;20053;-70
2022/09/17 23:34:16;;;;;;;29.60;26.50;;;;;;;;;;10194747;28;20053;-71
2022/09/17 23:39:12;;;;;;;27.80;25.52;;;;;;;;;;10194336;28;20041;-71
2022/09/17 23:44:09;;;;;;;25.73;23.67;;;;;;;;;;10195008;28;20052;-71
2022/09/17 23:49:11;;;;;;;26.80;24.87;;;;;;;;;;10189510;28;20081;-71
2022/09/17 23:54:08;;;;;;;25.23;22.77;;;;;;;;;;10163279;28;20050;-71
2022/09/17 23:59:04;;;;;;;24.77;22.55;;;;;;;;;;10193664;28;20045;-71
